Ana Sayfa
METAR-TAF:

METAR-TAF

Havaalanları :

Harlan Municipal Airport

Harlan, Iowa, Amerika Birleşik Devletleri

Enlem: 41-35-04N, Boylam: 095-20-23W, yükseklik: 375 m

Güncel hava durumu gözlemi

Rapor saat 02:55 UTC de 29 dakika önce yapıldı.
Rüzgar kuzey/kuzeydoğudan 7 kt
Sıcaklık 12°C
Nem 62%
Basınç 1016 hPa
Görüş mesafesi: 16.1 km
12000 ft yükseklikte parçalı bulutlu

METAR: KHNR 180255Z AUTO 02007KT 10SM SCT120 12/05 A2999 RMK A01

Saat: 22:24 (03:24 UTC)


TAF: eksik

4.000'den fazla havaalanı için hava durumu gözlemleri ve tahminleri (METAR ve TAF raporları).

Kullanılabilir istasyonlar harita üzerinde sarı ve kırmızı noktalarla gösterilir.

İstasyonun adını görmek için fareyi noktanın üzerinde gezdirin.

Sonrasında hava gözlem ve tahminlerini görmek için tıklayın.

Haritayı değiştirmek için: yaklaştırmak için siyah artı işaretli yeşil düğmeye ve uzaklaştırmak için de eksi işaretli düğmeye hızla tıklayın; bitişik haritalar için yeşil okları kullanın.


METAR-TAF: